Time;durP1;ratioP1;P1;durP2;ratioP2;P2;SDS_P1;SDS_P2;PMS_P1;PMS_P2;Temp;Humidity;BMP_temperature;BMP_pressure;BME280_temperature;BME280_humidity;BME280_pressure;Samples;Min_cycle;Max_cycle;Signal;HPM_P1;HPM_P2
2022/04/08 00:01:23;;;;;;;3.15;1.13;;;;;;;8.41;100.00;99195.94;5047504;28;20052;-73
2022/04/08 00:03:50;;;;;;;5.55;2.08;;;;;;;8.34;100.00;99190.53;5048219;28;20045;-73
2022/04/08 00:06:16;;;;;;;8.07;2.95;;;;;;;8.20;100.00;99204.47;5047590;28;20483;-72
2022/04/08 00:08:44;;;;;;;5.65;2.35;;;;;;;8.40;100.00;99210.88;5048921;28;20140;-70
2022/04/08 00:11:11;;;;;;;6.60;2.72;;;;;;;8.26;100.00;99222.13;5044296;28;20088;-72
2022/04/08 00:13:37;;;;;;;9.10;2.50;;;;;;;8.40;100.00;99210.88;5047747;28;20052;-70
2022/04/08 00:16:05;;;;;;;8.65;1.52;;;;;;;8.36;100.00;99214.88;5047647;28;20052;-69
2022/04/08 00:18:32;;;;;;;10.68;3.20;;;;;;;8.24;100.00;99212.72;5047941;28;20053;-69
2022/04/08 00:20:59;;;;;;;9.38;2.28;;;;;;;8.49;100.00;99216.66;5050394;28;20626;-70
2022/04/08 00:23:26;;;;;;;7.88;2.28;;;;;;;8.42;100.00;99214.00;5052227;28;20537;-69
2022/04/08 00:25:52;;;;;;;2.05;1.48;;;;;;;8.42;100.00;99230.53;5046868;28;20743;-72
2022/04/08 00:28:19;;;;;;;2.85;2.03;;;;;;;8.52;100.00;99235.09;5047078;28;20523;-71
2022/04/08 00:30:45;;;;;;;14.45;2.80;;;;;;;8.31;100.00;99237.41;5047557;28;20069;-71
2022/04/08 00:33:12;;;;;;;4.05;2.33;;;;;;;8.51;100.00;99232.78;5043806;28;20128;-71
2022/04/08 00:35:38;;;;;;;6.35;2.13;;;;;;;8.41;100.00;99236.47;5046973;28;20144;-71
2022/04/08 00:38:06;;;;;;;5.05;1.77;;;;;;;8.42;100.00;99249.84;5047944;28;20057;-71
2022/04/08 00:40:36;;;;;;;10.02;2.05;;;;;;;8.39;100.00;99258.94;5045778;28;20080;-73
2022/04/08 00:43:16;;;;;;;5.72;1.75;;;;;;;8.44;100.00;99252.19;5046822;28;20131;-72
2022/04/08 00:45:44;;;;;;;7.47;2.40;;;;;;;8.20;100.00;99267.84;5053815;28;20049;-71
2022/04/08 00:48:11;;;;;;;10.93;2.15;;;;;;;8.47;100.00;99260.38;5051448;28;20063;-72
2022/04/08 00:50:39;;;;;;;3.63;1.48;;;;;;;8.34;100.00;99266.91;5047442;28;20053;-71
2022/04/08 00:53:06;;;;;;;2.45;0.95;;;;;;;8.38;100.00;99287.69;5046645;28;20037;-71
2022/04/08 00:55:34;;;;;;;1.65;1.10;;;;;;;8.29;100.00;99289.41;5049785;28;20140;-72
2022/04/08 00:58:03;;;;;;;1.70;1.00;;;;;;;8.37;100.00;99288.13;5054286;28;20418;-71
2022/04/08 01:00:34;;;;;;;3.03;1.50;;;;;;;8.26;100.00;99288.25;5047460;28;20485;-71
2022/04/08 01:03:01;;;;;;;8.20;1.27;;;;;;;8.25;100.00;99302.44;5050870;28;20052;-71
2022/04/08 01:05:28;;;;;;;3.45;1.27;;;;;;;8.20;100.00;99283.63;5051622;28;20343;-72
2022/04/08 01:07:55;;;;;;;12.05;2.33;;;;;;;7.99;100.00;99310.25;5050957;28;20508;-70
2022/04/08 01:10:22;;;;;;;14.45;1.63;;;;;;;8.12;100.00;99304.97;5052321;28;20076;-70
2022/04/08 01:12:52;;;;;;;7.28;2.13;;;;;;;7.94;100.00;99320.94;5050735;28;20053;-70
2022/04/08 01:15:20;;;;;;;7.47;1.20;;;;;;;8.07;100.00;99319.97;5051635;28;20061;-70
2022/04/08 01:17:47;;;;;;;11.50;1.63;;;;;;;8.16;100.00;99308.44;5051282;28;20055;-69
2022/04/08 01:20:14;;;;;;;4.18;1.17;;;;;;;8.07;100.00;99318.41;5050919;28;20785;-71
2022/04/08 01:22:42;;;;;;;13.05;2.22;;;;;;;8.18;100.00;99317.09;5063433;28;20052;-70
2022/04/08 01:25:11;;;;;;;6.55;1.45;;;;;;;8.15;100.00;99331.69;5050004;28;20610;-71
2022/04/08 01:27:39;;;;;;;5.82;0.88;;;;;;;8.09;100.00;99341.59;5042239;28;20160;-70
2022/04/08 01:30:08;;;;;;;15.65;2.38;;;;;;;8.01;100.00;99334.63;5048856;28;20080;-69
2022/04/08 01:32:35;;;;;;;11.68;1.80;;;;;;;8.12;100.00;99338.03;5049479;28;20049;-71
2022/04/08 01:35:03;;;;;;;6.75;1.45;;;;;;;7.93;100.00;99338.66;5050294;28;20091;-70
2022/04/08 01:37:30;;;;;;;11.02;1.15;;;;;;;8.02;100.00;99353.50;5051394;28;20107;-71
2022/04/08 01:39:56;;;;;;;15.00;2.47;;;;;;;7.85;100.00;99365.50;5050559;28;20220;-72
2022/04/08 01:42:24;;;;;;;7.47;2.33;;;;;;;7.88;100.00;99367.44;5049147;28;20057;-71
2022/04/08 01:44:53;;;;;;;15.00;2.22;;;;;;;7.84;100.00;99379.69;5051157;28;20057;-72
2022/04/08 01:47:19;;;;;;;11.30;1.90;;;;;;;7.97;100.00;99361.44;5061534;28;20136;-71
2022/04/08 01:49:46;;;;;;;7.03;1.80;;;;;;;7.89;100.00;99376.47;5058691;28;20405;-72
2022/04/08 01:52:13;;;;;;;7.50;1.60;;;;;;;7.88;100.00;99385.94;5049589;28;20049;-73
2022/04/08 01:54:40;;;;;;;8.95;2.88;;;;;;;7.89;100.00;99380.00;5050174;28;20044;-71
2022/04/08 01:57:06;;;;;;;14.35;2.00;;;;;;;7.92;100.00;99381.94;5049687;28;20076;-71
2022/04/08 01:59:33;;;;;;;11.48;2.35;;;;;;;7.95;100.00;99389.38;5053686;28;20053;-71
2022/04/08 02:01:59;;;;;;;8.43;2.00;;;;;;;7.84;100.00;99393.47;5049984;28;20087;-70
2022/04/08 02:04:27;;;;;;;10.15;2.17;;;;;;;7.95;100.00;99396.88;5050479;28;20045;-70
2022/04/08 02:06:53;;;;;;;12.73;2.25;;;;;;;7.63;100.00;99399.97;5050148;28;20048;-71
2022/04/08 02:09:20;;;;;;;13.70;2.42;;;;;;;7.99;100.00;99403.09;5057350;28;20040;-70
2022/04/08 02:11:46;;;;;;;8.63;1.83;;;;;;;7.95;100.00;99405.91;5062206;28;20045;-71
2022/04/08 02:14:14;;;;;;;11.38;1.98;;;;;;;7.94;100.00;99409.09;5048775;28;20581;-70
2022/04/08 02:16:40;;;;;;;16.55;2.42;;;;;;;7.91;100.00;99412.66;5050974;28;20059;-70
2022/04/08 02:19:07;;;;;;;8.20;1.75;;;;;;;7.87;100.00;99415.44;5048909;28;20131;-70
2022/04/08 02:21:34;;;;;;;4.97;1.70;;;;;;;7.69;100.00;99419.56;5049244;28;20053;-71
2022/04/08 02:24:03;;;;;;;11.30;2.35;;;;;;;7.63;100.00;99427.47;5041678;28;20094;-71
2022/04/08 02:26:29;;;;;;;10.07;2.28;;;;;;;7.87;100.00;99433.94;5048072;28;20041;-70
2022/04/08 02:28:56;;;;;;;15.13;2.47;;;;;;;7.86;100.00;99441.41;5050017;28;20056;-70
2022/04/08 02:31:23;;;;;;;16.80;2.35;;;;;;;7.81;100.00;99441.09;5048920;28;20468;-71
2022/04/08 02:33:49;;;;;;;11.48;2.40;;;;;;;7.97;100.00;99444.06;5048777;28;20437;-70
2022/04/08 02:36:16;;;;;;;12.45;1.83;;;;;;;7.80;100.00;99445.03;5050148;28;20048;-70
2022/04/08 02:38:42;;;;;;;14.30;2.65;;;;;;;7.81;100.00;99443.84;5049788;28;20045;-72
2022/04/08 02:41:09;;;;;;;14.40;2.15;;;;;;;7.75;100.00;99451.75;5047777;28;20052;-69
2022/04/08 02:43:35;;;;;;;4.10;1.17;;;;;;;7.70;100.00;99462.44;5046200;28;20053;-71
2022/04/08 02:46:02;;;;;;;6.93;1.73;;;;;;;7.63;100.00;99455.00;5049142;28;20048;-71
2022/04/08 02:48:28;;;;;;;5.25;1.55;;;;;;;7.59;100.00;99467.25;5061730;28;20057;-70
2022/04/08 02:50:55;;;;;;;13.02;2.60;;;;;;;7.74;100.00;99463.94;5052637;28;20428;-70
2022/04/08 02:53:21;;;;;;;7.43;1.27;;;;;;;7.65;100.00;99471.13;5048494;28;20083;-70
2022/04/08 02:55:48;;;;;;;2.13;0.82;;;;;;;7.60;100.00;99483.34;5049909;28;20151;-70
2022/04/08 02:58:14;;;;;;;4.00;1.50;;;;;;;7.58;100.00;99484.94;5048913;28;20231;-71
2022/04/08 03:00:41;;;;;;;13.30;2.83;;;;;;;7.64;100.00;99473.13;5046921;28;20056;-72
2022/04/08 03:03:07;;;;;;;11.48;2.53;;;;;;;7.65;100.00;99482.13;5046382;28;20154;-72
2022/04/08 03:05:34;;;;;;;13.10;2.63;;;;;;;7.63;100.00;99479.78;5049559;28;20049;-71
2022/04/08 03:08:01;;;;;;;11.77;2.28;;;;;;;7.52;100.00;99481.84;5057077;28;20061;-72
2022/04/08 03:10:27;;;;;;;18.80;3.00;;;;;;;7.69;100.00;99485.63;5050145;28;20045;-71
2022/04/08 03:12:54;;;;;;;5.47;1.20;;;;;;;7.55;100.00;99477.50;5040984;28;20076;-71
2022/04/08 03:15:20;;;;;;;12.23;2.30;;;;;;;7.66;100.00;99484.47;5047682;28;20049;-70
2022/04/08 03:17:49;;;;;;;5.20;1.58;;;;;;;7.54;100.00;99490.50;5048763;28;20470;-70
2022/04/08 03:20:15;;;;;;;5.15;1.60;;;;;;;7.45;100.00;99495.69;5048242;28;20055;-70
2022/04/08 03:22:42;;;;;;;4.80;1.60;;;;;;;7.55;100.00;99491.25;5057070;28;20067;-71
2022/04/08 03:25:09;;;;;;;3.33;0.68;;;;;;;7.51;100.00;99494.06;5048528;28;20449;-70
2022/04/08 03:27:35;;;;;;;7.65;1.33;;;;;;;7.51;100.00;99493.28;5048764;28;20114;-72
2022/04/08 03:30:02;;;;;;;9.07;2.60;;;;;;;7.52;100.00;99495.63;5048864;28;20140;-70
2022/04/08 03:32:29;;;;;;;15.43;3.03;;;;;;;7.55;100.00;99483.81;5047630;28;20144;-70
2022/04/08 03:34:58;;;;;;;16.02;2.45;;;;;;;7.51;100.00;99491.31;5048719;28;20516;-70
2022/04/08 03:37:25;;;;;;;5.93;1.48;;;;;;;7.30;100.00;99490.69;5048838;28;20099;-71
2022/04/08 03:39:53;;;;;;;15.85;2.20;;;;;;;7.29;100.00;99492.66;5041263;28;20059;-71
2022/04/08 03:42:20;;;;;;;13.60;3.60;;;;;;;7.38;100.00;99497.69;5041303;28;20067;-70
2022/04/08 03:44:49;;;;;;;10.52;2.45;;;;;;;7.39;100.00;99496.53;5048816;28;20517;-71
2022/04/08 03:47:15;;;;;;;13.00;2.22;;;;;;;7.46;100.00;99499.22;5060730;28;20787;-69
2022/04/08 03:49:42;;;;;;;7.32;1.25;;;;;;;7.28;100.00;99512.31;5056869;28;20055;-69
2022/04/08 03:52:09;;;;;;;10.75;1.90;;;;;;;7.27;100.00;99508.00;5047183;28;20140;-71
2022/04/08 03:54:36;;;;;;;9.05;2.05;;;;;;;7.38;100.00;99522.47;5042440;28;20049;-71
2022/04/08 03:57:03;;;;;;;8.77;1.45;;;;;;;7.32;100.00;99521.31;5042371;28;20106;-70
2022/04/08 03:59:30;;;;;;;18.45;3.13;;;;;;;7.48;100.00;99530.66;5044106;28;20140;-71
2022/04/08 04:01:58;;;;;;;16.25;2.88;;;;;;;7.43;100.00;99542.06;5047632;28;20067;-71
2022/04/08 04:04:26;;;;;;;3.55;1.00;;;;;;;7.37;100.00;99529.94;5043235;28;20131;-71
2022/04/08 04:06:52;;;;;;;15.18;1.88;;;;;;;7.45;100.00;99542.47;5046277;28;20135;-71
2022/04/08 04:09:19;;;;;;;12.02;2.97;;;;;;;7.42;100.00;99542.47;5054153;28;20055;-70
2022/04/08 04:11:45;;;;;;;8.80;1.65;;;;;;;7.38;100.00;99549.97;5047931;28;20045;-71
2022/04/08 04:14:12;;;;;;;17.60;3.40;;;;;;;7.41;100.00;99538.16;5047972;28;20053;-70
2022/04/08 04:16:39;;;;;;;5.15;1.92;;;;;;;7.38;100.00;99555.47;5048671;28;20064;-73
2022/04/08 04:19:05;;;;;;;15.10;2.50;;;;;;;7.41;100.00;99541.72;5048044;28;20131;-71
2022/04/08 04:21:33;;;;;;;19.70;3.10;;;;;;;7.38;100.00;99550.78;5052310;28;20056;-70
2022/04/08 04:23:59;;;;;;;29.25;2.30;;;;;;;7.29;100.00;99549.66;5046653;28;20496;-73
2022/04/08 04:26:25;;;;;;;13.20;2.55;;;;;;;7.35;100.00;99553.53;5047993;28;20071;-72
2022/04/08 04:28:52;;;;;;;12.52;2.35;;;;;;;7.31;100.00;99550.03;5047717;28;20100;-69
2022/04/08 04:31:19;;;;;;;16.35;2.30;;;;;;;7.23;100.00;99551.28;5046919;28;20049;-71
2022/04/08 04:33:45;;;;;;;11.52;2.60;;;;;;;7.23;100.00;99556.78;5047231;28;20119;-70
2022/04/08 04:36:13;;;;;;;7.32;2.20;;;;;;;7.15;100.00;99550.53;5044207;28;20147;-72
2022/04/08 04:38:39;;;;;;;5.82;1.45;;;;;;;7.13;100.00;99549.34;5047602;28;20509;-70
2022/04/08 04:41:06;;;;;;;4.18;1.13;;;;;;;7.08;100.00;99547.03;5046372;28;20572;-70
2022/04/08 04:43:32;;;;;;;6.03;1.52;;;;;;;7.06;100.00;99552.16;5047710;28;20087;-69
2022/04/08 04:45:59;;;;;;;8.15;2.05;;;;;;;7.10;100.00;99556.47;5047272;28;20114;-71
2022/04/08 04:48:26;;;;;;;6.65;1.33;;;;;;;6.98;100.00;99553.34;5058457;28;20055;-70
2022/04/08 04:50:54;;;;;;;5.60;1.10;;;;;;;6.96;100.00;99564.00;5048923;28;20059;-70
2022/04/08 04:53:21;;;;;;;8.85;2.05;;;;;;;6.94;100.00;99560.84;5046732;28;20903;-72
2022/04/08 04:55:47;;;;;;;16.08;2.72;;;;;;;7.00;100.00;99557.28;5047014;28;20053;-71
2022/04/08 04:58:13;;;;;;;14.18;2.30;;;;;;;6.96;100.00;99564.00;5051172;28;20051;-71
2022/04/08 05:00:40;;;;;;;16.15;3.47;;;;;;;6.97;100.00;99569.09;5046096;28;20071;-71
2022/04/08 05:03:08;;;;;;;16.52;2.63;;;;;;;6.94;100.00;99566.34;5043407;28;20132;-70
2022/04/08 05:05:35;;;;;;;8.68;1.52;;;;;;;6.89;100.00;99566.78;5046844;28;20131;-71
2022/04/08 05:08:03;;;;;;;7.30;2.15;;;;;;;6.95;100.00;99571.44;5055642;28;20609;-70
2022/04/08 05:10:33;;;;;;;16.13;1.83;;;;;;;6.93;100.00;99575.78;5049781;28;20056;-71
2022/04/08 05:13:00;;;;;;;13.55;3.15;;;;;;;7.00;100.00;99581.25;5045901;28;20056;-70
2022/04/08 05:15:28;;;;;;;16.67;3.17;;;;;;;6.99;100.00;99580.47;5047208;28;20068;-71
2022/04/08 05:17:55;;;;;;;10.38;2.47;;;;;;;7.03;100.00;99583.22;5048606;28;20171;-71
2022/04/08 05:20:22;;;;;;;7.32;2.28;;;;;;;6.90;100.00;99584.84;5044312;28;20056;-70
2022/04/08 05:22:48;;;;;;;4.18;1.88;;;;;;;6.89;100.00;99575.03;5058722;28;20143;-70
2022/04/08 05:25:15;;;;;;;8.90;2.00;;;;;;;6.99;100.00;99583.22;5047326;28;20144;-71
2022/04/08 05:27:42;;;;;;;11.88;2.83;;;;;;;7.07;100.00;99583.97;5047496;28;20053;-71
2022/04/08 05:30:12;;;;;;;20.55;3.78;;;;;;;7.07;100.00;99593.00;5044588;28;20079;-71
2022/04/08 05:32:42;;;;;;;11.68;2.75;;;;;;;6.96;100.00;99597.75;5046569;28;20091;-72
2022/04/08 05:35:09;;;;;;;15.52;2.25;;;;;;;6.95;100.00;99585.19;5048486;28;20048;-71
2022/04/08 05:37:43;;;;;;;12.18;2.92;;;;;;;6.93;100.00;99590.31;5047432;28;20041;-71
2022/04/08 05:40:11;;;;;;;10.00;2.40;;;;;;;6.91;100.00;99594.63;5047198;28;20053;-71
2022/04/08 05:42:39;;;;;;;1.55;0.70;;;;;;;6.74;100.00;99590.78;5048968;28;20059;-73
2022/04/08 05:45:07;;;;;;;7.72;1.80;;;;;;;6.77;100.00;99597.44;5050880;28;20841;-70
2022/04/08 05:47:34;;;;;;;15.52;3.78;;;;;;;6.94;100.00;99591.09;5060457;28;20470;-71
2022/04/08 05:50:02;;;;;;;21.60;3.78;;;;;;;6.98;100.00;99595.41;5058935;28;20106;-70
2022/04/08 05:52:29;;;;;;;5.03;2.10;;;;;;;6.88;100.00;99592.69;5048651;28;20060;-71
2022/04/08 05:54:55;;;;;;;21.75;4.45;;;;;;;7.03;100.00;99594.22;5049798;28;20071;-70
2022/04/08 05:57:23;;;;;;;12.65;4.43;;;;;;;7.01;100.00;99596.56;5047192;28;20051;-72
2022/04/08 05:59:50;;;;;;;10.10;3.03;;;;;;;6.92;100.00;99588.75;5048448;28;20072;-71
2022/04/08 06:02:17;;;;;;;12.68;3.78;;;;;;;6.97;100.00;99584.78;5050247;28;20108;-71
2022/04/08 06:04:43;;;;;;;15.38;3.50;;;;;;;7.16;100.00;99587.06;5048522;28;20170;-70
2022/04/08 06:07:10;;;;;;;7.32;2.30;;;;;;;7.09;100.00;99589.84;5050571;28;20061;-70
2022/04/08 06:09:36;;;;;;;9.82;2.90;;;;;;;7.03;100.00;99583.22;5055024;28;20479;-72
2022/04/08 06:12:03;;;;;;;9.13;2.90;;;;;;;7.14;100.00;99584.72;5047803;28;20056;-71
2022/04/08 06:14:30;;;;;;;13.30;3.90;;;;;;;7.30;100.00;99587.75;5050213;28;20140;-70
2022/04/08 06:16:57;;;;;;;24.98;5.00;;;;;;;7.45;100.00;99578.25;5046002;28;20049;-73
2022/04/08 06:19:23;;;;;;;11.68;4.03;;;;;;;7.34;100.00;99585.00;5050701;28;20045;-71
2022/04/08 06:21:50;;;;;;;18.85;5.07;;;;;;;7.54;100.00;99575.81;5058972;28;20147;-71
2022/04/08 06:24:17;;;;;;;8.52;3.10;;;;;;;7.46;100.00;99581.78;5053623;28;20486;-72
2022/04/08 06:26:43;;;;;;;7.10;2.65;;;;;;;7.45;100.00;99569.19;5047371;28;20076;-72
2022/04/08 06:29:10;;;;;;;16.13;4.35;;;;;;;7.50;100.00;99582.53;5046183;28;20133;-72
2022/04/08 06:31:41;;;;;;;8.07;2.42;;;;;;;7.58;100.00;99571.06;5042658;28;20049;-71
2022/04/08 06:34:08;;;;;;;18.08;4.53;;;;;;;7.61;100.00;99586.00;5049752;28;20452;-73
2022/04/08 06:36:34;;;;;;;12.73;3.97;;;;;;;7.50;100.00;99590.78;5047968;28;20518;-75
2022/04/08 06:39:01;;;;;;;15.77;4.63;;;;;;;7.75;100.00;99580.38;5049845;28;20055;-72
2022/04/08 06:41:27;;;;;;;18.83;3.35;;;;;;;7.76;100.00;99579.19;5045880;28;20168;-72
2022/04/08 06:43:54;;;;;;;15.00;5.40;;;;;;;7.90;100.00;99579.09;5049667;28;20060;-71
2022/04/08 06:46:22;;;;;;;13.70;3.13;;;;;;;7.83;100.00;99587.38;5054135;28;20058;-71
2022/04/08 06:48:49;;;;;;;19.83;5.00;;;;;;;7.82;100.00;99577.56;5066022;28;20117;-71
2022/04/08 06:51:16;;;;;;;15.82;3.90;;;;;;;7.98;100.00;99589.63;5079231;28;20116;-72
2022/04/08 06:53:43;;;;;;;16.08;5.53;;;;;;;8.16;100.00;99581.19;5048462;28;20172;-72
2022/04/08 06:56:09;;;;;;;18.83;4.10;;;;;;;7.97;100.00;99592.78;5049548;28;20144;-74
2022/04/08 06:58:39;;;;;;;10.93;3.75;;;;;;;7.93;100.00;99581.78;5051145;28;20505;-71
2022/04/08 07:01:06;;;;;;;10.65;4.28;;;;;;;7.98;100.00;99591.59;5042091;28;20053;-73
2022/04/08 07:03:34;;;;;;;14.10;3.97;;;;;;;8.09;100.00;99583.25;5048560;28;20049;-73
2022/04/08 07:06:01;;;;;;;12.57;3.33;;;;;;;8.23;100.00;99575.63;5049756;28;20061;-71
2022/04/08 07:08:27;;;;;;;18.67;5.78;;;;;;;8.43;100.00;99576.63;5054540;28;20076;-72
2022/04/08 07:10:54;;;;;;;9.85;2.70;;;;;;;8.37;100.00;99578.25;5049743;28;20091;-73
2022/04/08 07:13:20;;;;;;;14.68;4.13;;;;;;;8.18;100.00;99587.09;5049294;28;20057;-73
2022/04/08 07:15:47;;;;;;;19.98;5.40;;;;;;;8.07;100.00;99567.91;5046870;28;20064;-74
2022/04/08 07:18:14;;;;;;;19.67;6.00;;;;;;;8.39;100.00;99556.59;5048360;28;20522;-73
2022/04/08 07:20:41;;;;;;;29.75;4.63;;;;;;;8.35;100.00;99557.81;5049472;28;20484;-72
2022/04/08 07:23:07;;;;;;;6.38;2.72;;;;;;;8.55;100.00;99554.06;5051783;28;20098;-72
2022/04/08 07:25:34;;;;;;;12.70;4.07;;;;;;;8.56;100.00;99566.63;5043496;28;20120;-74
2022/04/08 07:28:00;;;;;;;8.75;3.70;;;;;;;8.53;99.95;99567.44;5044840;28;20572;-71
2022/04/08 07:30:28;;;;;;;15.45;4.55;;;;;;;8.49;99.20;99572.22;5048593;28;20160;-72
2022/04/08 07:32:54;;;;;;;14.73;6.35;;;;;;;8.78;98.89;99565.19;5044699;28;20052;-74
2022/04/08 07:35:23;;;;;;;21.10;7.57;;;;;;;8.66;97.90;99575.97;5049409;28;20512;-71
2022/04/08 07:37:50;;;;;;;20.67;7.18;;;;;;;8.78;96.95;99572.69;5048169;28;20056;-73
2022/04/08 07:40:17;;;;;;;18.65;6.72;;;;;;;8.88;96.80;99574.53;5048050;28;20049;-71
2022/04/08 07:42:43;;;;;;;14.77;6.57;;;;;;;8.89;95.50;99574.13;5045516;28;20128;-72
2022/04/08 07:45:11;;;;;;;19.23;6.93;;;;;;;8.73;93.82;99582.19;5046713;28;20063;-71
2022/04/08 07:47:38;;;;;;;21.45;7.68;;;;;;;8.86;92.70;99574.94;5058459;28;20067;-71
2022/04/08 07:50:10;;;;;;;18.98;7.90;;;;;;;8.94;92.79;99581.94;5055600;28;20122;-71
2022/04/08 07:52:38;;;;;;;18.92;7.32;;;;;;;8.87;90.66;99581.25;5046355;28;20053;-73
2022/04/08 07:55:06;;;;;;;11.13;4.95;;;;;;;9.01;92.30;99576.31;5046005;28;20053;-73
2022/04/08 07:57:33;;;;;;;22.38;9.02;;;;;;;9.25;91.75;99572.44;5048890;28;20060;-72
2022/04/08 07:59:59;;;;;;;8.65;5.03;;;;;;;9.32;92.90;99566.81;5038729;28;20055;-69
2022/04/08 08:02:29;;;;;;;9.95;3.80;;;;;;;9.20;89.59;99566.63;5045974;28;20114;-71
2022/04/08 08:04:56;;;;;;;12.55;5.82;;;;;;;9.39;89.77;99575.00;5047347;28;20098;-71
2022/04/08 08:07:22;;;;;;;5.75;2.80;;;;;;;9.32;89.81;99564.06;5052570;28;20079;-74
2022/04/08 08:09:49;;;;;;;17.05;6.20;;;;;;;9.32;88.87;99566.81;5053301;28;21694;-72
2022/04/08 08:12:22;;;;;;;14.27;7.28;;;;;;;9.41;86.53;99560.78;5044323;28;20060;-72
2022/04/08 08:14:48;;;;;;;14.05;4.35;;;;;;;9.19;86.31;99562.28;5046347;28;20049;-73
2022/04/08 08:17:15;;;;;;;8.65;4.03;;;;;;;9.08;87.00;99567.19;5048893;28;20418;-72
2022/04/08 08:19:41;;;;;;;12.98;5.72;;;;;;;9.28;87.68;99566.09;5046429;28;20114;-72
2022/04/08 08:22:08;;;;;;;17.65;8.25;;;;;;;9.27;86.39;99564.53;5052524;28;20086;-73
2022/04/08 08:24:34;;;;;;;20.13;9.82;;;;;;;9.23;85.20;99560.25;5050816;28;20083;-72
2022/04/08 08:27:01;;;;;;;18.50;6.82;;;;;;;9.25;81.65;99569.69;5047891;28;20057;-73
2022/04/08 08:29:28;;;;;;;17.08;6.55;;;;;;;9.15;80.65;99565.09;5046129;28;20056;-72
2022/04/08 08:31:54;;;;;;;11.48;5.45;;;;;;;9.29;80.38;99559.41;5046413;28;20092;-73
2022/04/08 08:34:22;;;;;;;17.02;5.90;;;;;;;9.38;79.47;99567.91;5048216;28;20053;-74
2022/04/08 08:36:49;;;;;;;17.80;5.95;;;;;;;9.33;76.00;99553.81;5047479;28;20083;-72
2022/04/08 08:39:16;;;;;;;14.75;6.20;;;;;;;9.25;75.95;99555.88;5040029;28;20052;-72
2022/04/08 08:41:42;;;;;;;16.75;7.05;;;;;;;9.42;75.75;99554.09;5073651;28;20045;-75
2022/04/08 08:44:10;;;;;;;9.95;3.92;;;;;;;9.47;75.92;99548.06;5046082;28;20067;-72
2022/04/08 08:46:36;;;;;;;12.93;4.68;;;;;;;9.51;75.98;99557.88;5042387;28;20065;-73
2022/04/08 08:49:04;;;;;;;9.98;4.20;;;;;;;9.47;73.08;99562.66;5049960;28;20048;-72
2022/04/08 08:51:35;;;;;;;14.02;6.00;;;;;;;9.47;71.18;99554.38;5044448;28;20055;-71
2022/04/08 08:54:02;;;;;;;5.50;2.42;;;;;;;9.47;68.49;99559.91;5045861;28;20450;-73
2022/04/08 08:56:29;;;;;;;12.23;5.47;;;;;;;9.73;70.45;99545.31;5052362;28;20049;-74
2022/04/08 08:58:55;;;;;;;15.18;5.60;;;;;;;9.82;70.26;99548.28;5056749;28;20045;-72
2022/04/08 09:01:22;;;;;;;14.02;6.13;;;;;;;9.94;70.42;99539.41;5051124;28;20150;-72
2022/04/08 09:03:48;;;;;;;17.02;6.43;;;;;;;10.02;69.74;99538.09;5056345;28;20052;-73
2022/04/08 09:06:17;;;;;;;11.93;5.13;;;;;;;9.97;67.58;99535.03;5077303;28;20037;-72
2022/04/08 09:08:58;;;;;;;13.23;6.05;;;;;;;10.07;67.59;99532.13;5074829;28;20060;-73
2022/04/08 09:11:26;;;;;;;5.03;2.72;;;;;;;10.01;68.16;99522.72;5051418;28;20052;-74
2022/04/08 09:14:03;;;;;;;19.10;7.13;;;;;;;10.11;67.90;99519.00;5046659;28;20052;-72
2022/04/08 09:16:36;;;;;;;12.10;2.88;;;;;;;10.13;65.58;99516.59;5055906;28;20071;-73
2022/04/08 09:19:10;;;;;;;9.05;3.63;;;;;;;10.12;64.20;99508.72;5051930;28;20083;-73
2022/04/08 09:21:37;;;;;;;13.60;4.85;;;;;;;9.96;62.35;99503.84;5049724;28;20126;-74
2022/04/08 09:24:07;;;;;;;7.90;3.55;;;;;;;9.87;65.45;99495.34;5054880;28;20139;-73
2022/04/08 09:26:35;;;;;;;6.75;3.03;;;;;;;9.97;67.46;99485.28;5052630;28;20049;-73
2022/04/08 09:29:03;;;;;;;9.38;3.25;;;;;;;9.93;63.31;99493.63;5050418;28;20187;-73
2022/04/08 09:31:30;;;;;;;9.60;3.53;;;;;;;9.81;62.87;99482.41;5047510;28;20060;-73
2022/04/08 09:33:57;;;;;;;16.38;5.45;;;;;;;10.00;63.04;99476.16;5049385;28;20076;-74
2022/04/08 09:36:27;;;;;;;7.32;3.42;;;;;;;10.11;62.45;99472.03;5052098;28;20045;-73
2022/04/08 09:38:54;;;;;;;12.90;5.68;;;;;;;10.34;63.75;99473.94;5055712;28;20690;-73
2022/04/08 09:41:20;;;;;;;4.18;2.47;;;;;;;10.07;58.82;99470.53;5054126;28;20114;-73
2022/04/08 09:43:48;;;;;;;11.57;4.55;;;;;;;10.15;57.74;99461.69;5042079;28;20048;-75
2022/04/08 09:46:17;;;;;;;13.23;5.90;;;;;;;10.31;57.28;99461.75;5042062;28;20565;-72
2022/04/08 09:48:45;;;;;;;7.82;3.58;;;;;;;9.86;55.58;99454.31;5055320;28;20095;-72
2022/04/08 09:51:23;;;;;;;13.52;5.75;;;;;;;10.19;57.22;99447.78;5030903;28;20115;-72
2022/04/08 09:53:58;;;;;;;7.82;3.90;;;;;;;10.09;54.53;99459.81;5054363;28;20060;-73
2022/04/08 09:56:29;;;;;;;8.57;3.67;;;;;;;9.95;53.58;99452.56;5045490;28;20794;-74
2022/04/08 09:59:15;;;;;;;11.35;3.15;;;;;;;9.83;54.93;99460.69;5044222;28;20533;-74
2022/04/08 10:02:03;;;;;;;7.03;2.93;;;;;;;9.95;52.65;99446.25;5043404;28;20056;-73
2022/04/08 10:04:30;;;;;;;12.27;3.78;;;;;;;10.20;52.73;99450.13;5054560;28;20128;-75
2022/04/08 10:06:57;;;;;;;13.25;4.72;;;;;;;10.40;52.73;99445.38;5055429;28;20470;-72
2022/04/08 10:09:31;;;;;;;10.48;4.07;;;;;;;10.48;52.63;99446.00;5050951;28;20506;-73
2022/04/08 10:12:13;;;;;;;6.72;2.90;;;;;;;10.14;50.39;99457.38;5044334;28;20053;-73
2022/04/08 10:14:58;;;;;;;3.05;1.30;;;;;;;10.21;50.17;99440.63;5049313;28;20476;-73
2022/04/08 10:17:25;;;;;;;5.57;2.33;;;;;;;10.34;51.37;99436.03;5053713;28;20163;-73
2022/04/08 10:19:52;;;;;;;9.52;3.80;;;;;;;10.54;52.61;99430.47;5049931;28;20048;-72
2022/04/08 10:22:20;;;;;;;8.18;3.75;;;;;;;10.73;53.44;99429.66;5052396;28;20053;-73
2022/04/08 10:24:54;;;;;;;5.07;1.88;;;;;;;10.47;50.11;99436.91;5053478;28;20053;-73
2022/04/08 10:27:35;;;;;;;13.50;4.30;;;;;;;10.65;51.55;99430.22;5048517;28;20549;-73
2022/04/08 10:30:20;;;;;;;11.55;4.38;;;;;;;10.78;52.03;99431.94;5047167;28;20080;-75
2022/04/08 10:32:57;;;;;;;2.63;1.38;;;;;;;10.64;49.41;99434.22;5052625;28;20053;-73
2022/04/08 10:35:24;;;;;;;5.38;1.80;;;;;;;10.56;48.99;99433.59;5041430;28;20068;-76
2022/04/08 10:38:20;;;;;;;8.32;2.95;;;;;;;10.75;48.27;99434.75;5046296;28;20141;-73
2022/04/08 10:40:58;;;;;;;8.60;3.00;;;;;;;10.87;50.38;99431.34;5040506;28;20051;-74
2022/04/08 10:43:26;;;;;;;14.25;3.50;;;;;;;10.88;51.38;99430.91;5042198;28;20136;-73
2022/04/08 10:45:58;;;;;;;5.85;2.25;;;;;;;10.78;51.31;99433.91;5046711;28;20643;-73
2022/04/08 10:48:33;;;;;;;1.70;1.17;;;;;;;10.52;50.37;99435.66;5059107;28;20055;-73
2022/04/08 10:51:11;;;;;;;5.50;1.98;;;;;;;10.63;51.66;99433.44;5047454;28;20053;-73
2022/04/08 10:53:42;;;;;;;3.70;1.83;;;;;;;10.70;51.66;99430.50;5047872;28;20052;-75
2022/04/08 10:56:14;;;;;;;3.75;1.98;;;;;;;10.50;47.89;99441.59;5047780;28;20041;-74
2022/04/08 10:58:42;;;;;;;5.93;1.90;;;;;;;10.74;47.01;99447.81;5046423;28;20132;-74
2022/04/08 11:01:19;;;;;;;5.97;2.75;;;;;;;10.75;47.93;99426.47;5042334;28;20505;-73
2022/04/08 11:04:00;;;;;;;4.70;1.45;;;;;;;10.42;47.25;99429.16;5047976;28;20056;-72
2022/04/08 11:06:28;;;;;;;6.07;2.00;;;;;;;10.54;48.41;99414.66;5050459;28;20041;-73
2022/04/08 11:08:56;;;;;;;1.20;1.00;;;;;;;10.60;47.93;99414.94;5045627;28;20052;-73
2022/04/08 11:11:33;;;;;;;5.82;1.73;;;;;;;10.48;47.62;99421.91;5041307;28;20048;-73
2022/04/08 11:14:01;;;;;;;4.78;1.88;;;;;;;10.69;48.83;99411.59;5044065;28;20098;-72
2022/04/08 11:16:30;;;;;;;4.82;1.80;;;;;;;10.73;48.52;99418.59;5049945;28;20094;-73
2022/04/08 11:18:57;;;;;;;4.03;1.80;;;;;;;10.78;45.79;99414.53;5045005;28;20071;-73
2022/04/08 11:21:24;;;;;;;2.95;1.05;;;;;;;10.81;45.45;99405.38;5045668;28;20085;-72
2022/04/08 11:23:59;;;;;;;4.68;1.58;;;;;;;10.65;44.18;99416.41;5046726;28;20114;-74
2022/04/08 11:26:28;;;;;;;3.20;1.25;;;;;;;10.75;44.92;99396.81;5049022;28;20052;-73
2022/04/08 11:29:12;;;;;;;10.82;2.10;;;;;;;10.80;46.71;99395.53;5052377;28;20052;-73
2022/04/08 11:31:39;;;;;;;9.23;2.55;;;;;;;10.95;45.33;99396.75;5042552;28;20044;-73
2022/04/08 11:34:06;;;;;;;5.20;1.42;;;;;;;10.81;43.14;99397.09;5051212;28;20048;-73
2022/04/08 11:36:37;;;;;;;6.15;2.00;;;;;;;11.08;45.58;99384.56;5047585;28;20096;-73